Time;durP1;ratioP1;P1;durP2;ratioP2;P2;SDS_P1;SDS_P2;PMS_P1;PMS_P2;Temp;Humidity;BMP_temperature;BMP_pressure;BME280_temperature;BME280_humidity;BME280_pressure;Samples;Min_cycle;Max_cycle;Signal;HPM_P1;HPM_P2
2022/05/20 00:02:17;;;;;;;5.82;1.70;;;;;;;22.18;36.66;101453.50;5091827;28;20032;-76
2022/05/20 00:04:43;;;;;;;9.63;1.90;;;;;;;22.28;36.41;101450.03;5091370;28;20059;-76
2022/05/20 00:07:09;;;;;;;8.70;2.80;;;;;;;22.27;36.35;101440.09;5090740;28;20052;-76
2022/05/20 00:09:37;;;;;;;15.85;2.38;;;;;;;22.20;36.66;101438.00;5091860;28;20023;-76
2022/05/20 00:12:04;;;;;;;9.73;2.10;;;;;;;21.94;37.41;101437.97;5091868;28;20024;-76
2022/05/20 00:14:34;;;;;;;8.80;1.95;;;;;;;22.05;37.24;101448.09;5091172;28;20115;-77
2022/05/20 00:17:04;;;;;;;8.25;2.13;;;;;;;21.99;37.20;101438.47;5093184;28;20031;-77
2022/05/20 00:19:29;;;;;;;11.15;2.53;;;;;;;22.05;37.28;101436.97;5095417;28;20044;-77
2022/05/20 00:21:55;;;;;;;10.82;2.10;;;;;;;22.04;37.25;101438.13;5095590;28;20026;-76
2022/05/20 00:24:21;;;;;;;8.63;2.15;;;;;;;22.17;36.97;101438.78;5095491;28;20070;-76
2022/05/20 00:26:47;;;;;;;7.47;2.38;;;;;;;22.15;37.15;101446.69;5077199;28;20032;-76
2022/05/20 00:29:13;;;;;;;8.43;2.30;;;;;;;22.07;37.28;101439.41;5094571;28;20032;-77
2022/05/20 00:31:40;;;;;;;9.13;2.63;;;;;;;22.15;37.18;101452.25;5094819;28;20023;-77
2022/05/20 00:34:05;;;;;;;7.22;2.13;;;;;;;22.14;37.46;101439.50;5095313;28;20081;-76
2022/05/20 00:36:31;;;;;;;7.45;2.00;;;;;;;22.16;37.30;101431.59;5094731;28;20470;-76
2022/05/20 00:38:57;;;;;;;6.35;2.47;;;;;;;22.18;37.56;101434.00;5095136;28;20028;-76
2022/05/20 00:41:23;;;;;;;10.40;2.25;;;;;;;22.09;37.50;101437.84;5095240;28;20065;-76
2022/05/20 00:43:50;;;;;;;11.35;2.72;;;;;;;22.06;37.66;101443.31;5095057;28;20016;-76
2022/05/20 00:46:22;;;;;;;11.77;2.60;;;;;;;22.11;37.60;101437.47;5094357;28;20028;-80
2022/05/20 00:48:54;;;;;;;8.27;2.50;;;;;;;22.09;37.69;101428.72;5094871;28;20481;-76
2022/05/20 00:51:36;;;;;;;8.38;2.53;;;;;;;22.06;37.93;101426.63;5094913;28;20032;-76
2022/05/20 00:54:26;;;;;;;12.52;2.65;;;;;;;22.09;37.77;101423.94;5094994;28;20024;-76
2022/05/20 00:57:12;;;;;;;6.53;2.30;;;;;;;22.03;37.94;101411.50;5094376;28;20028;-76
2022/05/20 00:59:42;;;;;;;9.20;2.60;;;;;;;22.03;37.83;101410.69;5094245;28;20033;-76
2022/05/20 01:02:15;;;;;;;9.55;2.78;;;;;;;22.09;37.86;101404.47;5094469;28;20024;-76
2022/05/20 01:04:42;;;;;;;8.43;2.08;;;;;;;22.06;37.70;101413.50;5094587;28;20474;-76
2022/05/20 01:07:09;;;;;;;9.85;2.38;;;;;;;22.01;37.91;101413.84;5093398;28;20020;-76
2022/05/20 01:09:39;;;;;;;11.02;2.42;;;;;;;22.01;38.03;101416.63;5094336;28;20379;-76
2022/05/20 01:12:06;;;;;;;10.82;2.42;;;;;;;22.01;37.97;101413.06;5076356;28;20382;-76
2022/05/20 01:14:32;;;;;;;12.63;2.83;;;;;;;21.89;38.33;101405.72;5093950;28;20023;-76
2022/05/20 01:16:58;;;;;;;13.18;3.17;;;;;;;21.89;38.26;101406.50;5094392;28;20017;-76
2022/05/20 01:19:51;;;;;;;15.65;3.65;;;;;;;21.56;39.16;101398.84;5094227;28;20119;-76
2022/05/20 01:22:28;;;;;;;9.85;3.88;;;;;;;21.76;38.85;101395.97;5094382;28;20039;-76
2022/05/20 01:24:54;;;;;;;16.23;2.85;;;;;;;21.84;38.58;101403.28;5094238;28;20016;-76
2022/05/20 01:27:19;;;;;;;12.52;3.65;;;;;;;21.71;38.92;101399.06;5094278;28;20031;-76
2022/05/20 01:29:45;;;;;;;10.65;2.38;;;;;;;22.02;38.22;101393.19;5093462;28;20398;-77
2022/05/20 01:32:11;;;;;;;9.18;2.75;;;;;;;21.97;38.37;101390.72;5093586;28;20028;-76
2022/05/20 01:34:36;;;;;;;8.55;2.70;;;;;;;21.95;38.51;101384.75;5094126;28;20035;-76
2022/05/20 01:37:02;;;;;;;12.75;3.55;;;;;;;21.89;38.55;101380.69;5093550;28;20028;-76
2022/05/20 01:39:28;;;;;;;10.00;2.95;;;;;;;21.86;38.50;101381.44;5094055;28;20031;-76
2022/05/20 01:42:13;;;;;;;8.55;2.13;;;;;;;21.86;38.48;101384.22;5093981;28;20034;-76
2022/05/20 01:44:55;;;;;;;8.23;2.00;;;;;;;21.84;38.76;101387.38;5093305;28;20501;-76
2022/05/20 01:47:30;;;;;;;11.30;2.20;;;;;;;21.80;38.54;101382.91;5093886;28;20025;-76
2022/05/20 01:50:11;;;;;;;10.32;2.22;;;;;;;21.83;38.69;101380.19;5093778;28;20028;-76
2022/05/20 01:52:45;;;;;;;8.95;2.75;;;;;;;21.87;38.54;101383.03;5093776;28;20027;-76
2022/05/20 01:55:43;;;;;;;5.75;2.40;;;;;;;21.79;38.79;101372.97;5093739;28;20024;-76
2022/05/20 01:58:18;;;;;;;8.10;2.97;;;;;;;21.74;39.00;101382.44;5093505;28;20559;-76
2022/05/20 02:00:46;;;;;;;6.53;2.95;;;;;;;21.76;39.07;101384.84;5092729;28;20031;-76
2022/05/20 02:03:15;;;;;;;8.20;2.03;;;;;;;21.76;38.71;101391.19;5093528;28;20027;-76
2022/05/20 02:05:53;;;;;;;8.38;2.25;;;;;;;21.68;39.04;101397.81;5093471;28;20035;-76
2022/05/20 02:08:40;;;;;;;6.32;2.50;;;;;;;21.70;38.70;101395.50;5093547;28;20427;-76
2022/05/20 02:11:25;;;;;;;9.18;2.53;;;;;;;21.73;39.06;101380.03;5093425;28;20043;-80
2022/05/20 02:14:03;;;;;;;7.57;2.50;;;;;;;21.83;38.57;101387.72;5092793;28;20039;-76
2022/05/20 02:16:33;;;;;;;11.27;2.20;;;;;;;21.72;38.86;101370.88;5093394;28;20024;-76
2022/05/20 02:19:24;;;;;;;10.13;2.63;;;;;;;21.69;38.94;101376.38;5074970;28;20414;-76
2022/05/20 02:21:55;;;;;;;10.15;2.13;;;;;;;21.73;38.63;101369.72;5093203;28;20081;-76
2022/05/20 02:24:24;;;;;;;11.13;2.70;;;;;;;21.68;38.78;101366.44;5093196;28;20028;-77
2022/05/20 02:27:03;;;;;;;11.63;2.37;;;;;;;21.57;38.87;101372.63;5093174;28;20417;-76
2022/05/20 02:30:02;;;;;;;9.02;2.10;;;;;;;21.54;38.88;101359.50;5092347;28;20523;-76
2022/05/20 02:32:36;;;;;;;8.32;2.10;;;;;;;21.64;38.61;101360.84;5069641;28;20062;-76
2022/05/20 02:35:02;;;;;;;8.05;2.70;;;;;;;21.68;38.55;101358.09;5092743;28;20028;-76
2022/05/20 02:37:34;;;;;;;4.57;2.00;;;;;;;21.59;38.76;101350.81;5092432;28;20077;-76
2022/05/20 02:40:01;;;;;;;10.20;2.45;;;;;;;21.55;38.93;101352.75;5092421;28;20566;-76
2022/05/20 02:42:30;;;;;;;8.38;2.78;;;;;;;21.55;38.85;101357.50;5092947;28;20070;-76
2022/05/20 02:45:00;;;;;;;7.18;2.33;;;;;;;21.52;38.99;101347.91;5091711;28;20027;-77
2022/05/20 02:47:31;;;;;;;;;;;;;;;21.37;39.15;101342.50;5093600;28;20081;-79
2022/05/20 02:49:57;;;;;;;7.57;2.25;;;;;;;21.49;38.75;101343.13;5092834;28;19923;-78
2022/05/20 02:52:23;;;;;;;7.43;2.00;;;;;;;21.50;38.72;101344.72;5092688;28;20145;-76
2022/05/20 02:54:48;;;;;;;8.98;2.42;;;;;;;21.51;38.77;101339.97;5092757;28;20038;-75
2022/05/20 02:57:14;;;;;;;8.65;2.55;;;;;;;21.47;38.93;101333.56;5092635;28;20043;-76
2022/05/20 03:05:08;;;;;;;8.27;2.00;;;;;;;21.47;38.85;101322.44;5092412;28;20082;-79
2022/05/20 03:07:33;;;;;;;6.43;2.08;;;;;;;21.47;38.82;101319.66;5092340;28;20428;-76
2022/05/20 03:10:00;;;;;;;7.03;2.38;;;;;;;21.40;38.89;101320.34;5092134;28;20028;-75
2022/05/20 03:12:26;;;;;;;10.45;2.88;;;;;;;21.42;38.82;101315.19;5092278;28;20073;-76
2022/05/20 03:14:52;;;;;;;9.60;2.10;;;;;;;21.33;38.99;101306.31;5091629;28;20035;-77
2022/05/20 03:17:18;;;;;;;11.40;2.35;;;;;;;21.25;39.10;101312.91;5091159;28;20024;-78
2022/05/20 03:19:43;;;;;;;11.15;1.85;;;;;;;21.14;39.20;101312.72;5091744;28;20040;-76
2022/05/20 03:22:09;;;;;;;8.57;2.65;;;;;;;21.09;39.29;101317.81;5092319;28;20039;-76
2022/05/20 03:24:35;;;;;;;7.80;1.95;;;;;;;21.14;39.26;101314.69;5092326;28;20016;-76
2022/05/20 03:27:03;;;;;;;10.90;2.55;;;;;;;21.09;39.32;101313.03;5092257;28;20027;-75
2022/05/20 03:29:29;;;;;;;8.13;2.15;;;;;;;21.09;39.18;101306.69;5073236;28;20375;-76
2022/05/20 03:31:55;;;;;;;8.25;2.25;;;;;;;21.10;38.97;101306.31;5092294;28;20020;-79
2022/05/20 03:34:21;;;;;;;5.00;1.60;;;;;;;21.02;39.29;101308.16;5092374;28;20035;-78
2022/05/20 03:36:49;;;;;;;4.63;1.50;;;;;;;21.01;39.22;101300.19;5092269;28;20130;-79
2022/05/20 03:39:20;;;;;;;13.65;2.38;;;;;;;21.05;38.89;101295.50;5092340;28;20107;-76
2022/05/20 03:41:47;;;;;;;6.90;1.95;;;;;;;21.06;39.00;101300.69;5074083;28;20028;-76
2022/05/20 03:44:14;;;;;;;6.53;1.75;;;;;;;21.02;39.03;101291.50;5091546;28;20028;-78
2022/05/20 03:46:47;;;;;;;6.70;2.05;;;;;;;20.95;39.34;101293.34;5092065;28;20417;-78
2022/05/20 03:49:14;;;;;;;10.52;2.63;;;;;;;20.88;39.42;101279.34;5091954;28;20024;-77
2022/05/20 03:51:40;;;;;;;6.50;2.15;;;;;;;20.82;39.33;101287.16;5092794;28;20026;-79
2022/05/20 03:54:06;;;;;;;8.25;2.00;;;;;;;20.84;39.30;101289.56;5096109;28;20020;-77
2022/05/20 03:56:32;;;;;;;3.45;1.50;;;;;;;20.77;39.29;101282.69;5096026;28;20704;-76
2022/05/20 03:59:00;;;;;;;9.18;2.50;;;;;;;20.76;39.41;101283.88;5095174;28;20020;-78
2022/05/20 04:04:10;;;;;;;11.10;2.83;;;;;;;20.77;39.26;101274.38;5095848;28;20062;-76
2022/05/20 04:06:37;;;;;;;5.75;1.65;;;;;;;20.81;38.98;101263.34;5095799;28;20493;-76
2022/05/20 04:09:05;;;;;;;7.03;1.90;;;;;;;20.80;39.23;101256.19;5095721;28;20049;-76
2022/05/20 04:11:31;;;;;;;19.13;2.40;;;;;;;20.69;39.44;101260.72;5095791;28;20042;-76
2022/05/20 04:13:57;;;;;;;6.18;1.80;;;;;;;20.75;39.32;101262.03;5095048;28;20367;-76
2022/05/20 04:16:22;;;;;;;9.57;2.15;;;;;;;20.75;39.14;101257.28;5077368;28;20039;-77
2022/05/20 04:18:48;;;;;;;5.38;1.88;;;;;;;20.64;39.41;101263.84;5095547;28;20024;-76
2022/05/20 04:21:15;;;;;;;6.22;2.47;;;;;;;20.55;39.47;101255.72;5095579;28;20052;-76
2022/05/20 04:23:41;;;;;;;5.93;1.95;;;;;;;20.61;39.32;101259.78;5095565;28;20028;-81
2022/05/20 04:26:08;;;;;;;8.35;2.20;;;;;;;20.61;39.49;101254.25;5095465;28;20363;-76
2022/05/20 04:28:33;;;;;;;5.57;1.88;;;;;;;20.62;39.39;101249.50;5094674;28;20028;-76
2022/05/20 04:31:04;;;;;;;10.23;2.17;;;;;;;20.52;39.53;101250.91;5094793;28;20086;-76
2022/05/20 04:33:30;;;;;;;8.07;2.13;;;;;;;20.48;39.56;101253.63;5075134;28;20398;-78
2022/05/20 04:35:56;;;;;;;11.20;2.00;;;;;;;20.52;39.58;101266.75;5075050;28;20058;-78
2022/05/20 04:38:22;;;;;;;8.93;1.75;;;;;;;20.53;39.53;101257.25;5074983;28;20103;-76
2022/05/20 04:49:05;;;;;;;6.18;1.73;;;;;;;20.57;39.77;101244.25;5095116;28;20027;-76
2022/05/20 04:51:32;;;;;;;9.93;2.10;;;;;;;20.63;39.61;101240.00;5095000;28;20027;-77
2022/05/20 04:56:41;;;;;;;9.88;2.00;;;;;;;20.67;39.59;101244.44;5094944;28;20039;-76
2022/05/20 04:59:07;;;;;;;7.88;1.73;;;;;;;20.76;39.52;101244.19;5092577;28;20028;-76
2022/05/20 05:01:33;;;;;;;5.15;1.55;;;;;;;20.74;39.62;101241.78;5094692;28;20024;-76
2022/05/20 05:03:58;;;;;;;10.32;2.42;;;;;;;20.80;39.77;101233.16;5094482;28;20038;-76
2022/05/20 05:06:24;;;;;;;10.18;2.72;;;;;;;20.77;39.66;101231.91;5094630;28;20039;-76
2022/05/20 05:08:49;;;;;;;14.68;3.00;;;;;;;20.84;39.63;101237.59;5094509;28;20615;-76
2022/05/20 05:11:15;;;;;;;13.18;2.05;;;;;;;20.87;39.59;101236.88;5094553;28;20028;-76
2022/05/20 05:13:40;;;;;;;11.80;2.63;;;;;;;20.76;40.08;101233.09;5093911;28;20421;-77
2022/05/20 05:16:07;;;;;;;8.95;2.45;;;;;;;20.91;39.73;101228.59;5094260;28;20028;-76
2022/05/20 05:18:32;;;;;;;8.88;2.22;;;;;;;21.04;39.51;101239.13;5094547;28;20032;-75
2022/05/20 05:21:01;;;;;;;11.43;2.50;;;;;;;21.10;39.68;101230.50;5094194;28;20044;-78
2022/05/20 05:23:27;;;;;;;7.07;2.03;;;;;;;21.20;39.34;101232.63;5094400;28;20028;-75
2022/05/20 05:25:52;;;;;;;9.15;1.88;;;;;;;21.28;39.29;101234.38;5094285;28;20028;-75
2022/05/20 05:28:19;;;;;;;9.85;1.95;;;;;;;21.31;39.31;101240.00;5093558;28;20020;-75
2022/05/20 05:30:46;;;;;;;7.63;1.75;;;;;;;21.34;39.40;101227.31;5093896;28;20039;-79
2022/05/20 05:33:12;;;;;;;9.85;2.33;;;;;;;21.34;39.64;101224.53;5094111;28;20394;-75
2022/05/20 05:35:38;;;;;;;13.77;3.17;;;;;;;21.30;39.61;101224.47;5094132;28;20024;-77
2022/05/20 05:38:04;;;;;;;6.97;1.80;;;;;;;21.49;39.28;101226.34;5094062;28;20073;-75
2022/05/20 05:40:32;;;;;;;6.50;1.77;;;;;;;21.55;39.27;101224.06;5094018;28;20028;-75
2022/05/20 05:42:59;;;;;;;7.38;2.00;;;;;;;21.57;39.44;101228.06;5093299;28;20085;-76
2022/05/20 05:45:27;;;;;;;9.45;2.38;;;;;;;21.40;39.75;101225.03;5075614;28;20441;-76
2022/05/20 05:48:07;;;;;;;10.13;2.28;;;;;;;21.50;39.80;101216.81;5075508;28;20024;-76
2022/05/20 05:50:37;;;;;;;8.43;2.25;;;;;;;21.69;39.29;101207.56;5093913;28;20035;-76
2022/05/20 05:53:14;;;;;;;7.22;2.08;;;;;;;21.63;39.69;101209.06;5093726;28;20462;-76
2022/05/20 05:55:43;;;;;;;8.88;2.03;;;;;;;21.77;39.38;101205.69;5093810;28;20024;-76
2022/05/20 05:58:09;;;;;;;7.90;1.70;;;;;;;21.73;39.49;101213.16;5092923;28;20497;-76
2022/05/20 06:00:36;;;;;;;10.77;1.95;;;;;;;21.93;39.17;101217.41;5093439;28;20028;-76
2022/05/20 06:03:01;;;;;;;5.22;1.60;;;;;;;22.04;38.86;101223.88;5093700;28;20025;-75
2022/05/20 06:05:27;;;;;;;11.85;2.08;;;;;;;22.04;39.04;101223.06;5093603;28;20390;-76
2022/05/20 06:07:52;;;;;;;11.90;2.90;;;;;;;22.02;39.00;101219.88;5093541;28;20024;-75
2022/05/20 06:10:19;;;;;;;6.72;2.10;;;;;;;22.12;38.71;101208.09;5075052;28;20056;-77
2022/05/20 06:12:45;;;;;;;5.78;1.67;;;;;;;22.22;38.69;101213.00;5092332;28;20028;-76
2022/05/20 06:15:15;;;;;;;9.07;2.08;;;;;;;22.17;38.67;101207.75;5092935;28;20026;-76
2022/05/20 06:17:41;;;;;;;6.97;1.75;;;;;;;22.14;38.89;101209.34;5093314;28;20098;-80
2022/05/20 06:20:06;;;;;;;6.13;2.40;;;;;;;22.13;38.94;101207.72;5059619;28;20160;-80
2022/05/20 06:22:32;;;;;;;12.85;2.60;;;;;;;22.12;39.10;101202.53;5053123;28;20029;-77
2022/05/20 06:24:58;;;;;;;14.18;3.92;;;;;;;22.17;38.77;101209.75;5053340;28;20090;-83
2022/05/20 06:27:24;;;;;;;6.15;1.70;;;;;;;22.27;38.74;101217.41;5052961;28;20114;-76
2022/05/20 06:29:50;;;;;;;4.63;1.60;;;;;;;22.35;38.54;101205.97;5052738;28;20070;-84
2022/05/20 06:32:17;;;;;;;9.35;2.60;;;;;;;22.38;38.66;101199.66;5052977;28;20039;-82
2022/05/20 06:40:14;;;;;;;12.77;2.38;;;;;;;22.38;38.84;101198.84;5052788;28;20094;-81
2022/05/20 06:42:40;;;;;;;8.65;2.08;;;;;;;22.45;38.65;101201.69;5050560;28;20120;-80
2022/05/20 06:45:07;;;;;;;6.22;1.73;;;;;;;22.51;38.54;101200.16;5052770;28;20032;-81
2022/05/20 06:47:32;;;;;;;6.32;1.58;;;;;;;22.48;38.92;101208.47;5052633;28;20468;-76
2022/05/20 06:49:58;;;;;;;10.10;2.50;;;;;;;22.60;38.64;101203.44;5052674;28;20035;-77
2022/05/20 06:52:24;;;;;;;11.05;2.35;;;;;;;22.57;38.49;101200.59;5052524;28;20109;-82
2022/05/20 06:54:49;;;;;;;8.98;2.10;;;;;;;22.57;38.65;101192.25;5052580;28;20029;-76
2022/05/20 06:57:19;;;;;;;6.25;2.22;;;;;;;22.65;38.42;101189.13;5051888;28;20383;-77
2022/05/20 06:59:45;;;;;;;10.13;2.50;;;;;;;22.77;38.02;101198.41;5052367;28;20391;-79
2022/05/20 07:02:10;;;;;;;15.23;2.35;;;;;;;22.94;38.01;101192.19;5051299;28;20029;-76
2022/05/20 07:04:36;;;;;;;13.85;2.65;;;;;;;22.86;38.10;101190.53;5050289;28;20032;-81
2022/05/20 07:07:04;;;;;;;11.73;2.53;;;;;;;23.00;37.82;101190.66;5050822;28;20064;-78
2022/05/20 07:09:29;;;;;;;8.27;2.33;;;;;;;22.99;38.23;101189.06;5050458;28;20112;-76
2022/05/20 07:11:55;;;;;;;12.00;2.65;;;;;;;22.91;38.14;101187.41;5050528;28;20528;-83
2022/05/20 07:14:22;;;;;;;9.65;2.60;;;;;;;23.05;37.96;101175.53;5050972;28;20028;-77
2022/05/20 07:16:48;;;;;;;10.02;2.30;;;;;;;22.89;38.37;101189.75;5052244;28;20074;-76
2022/05/20 07:19:14;;;;;;;8.55;2.05;;;;;;;22.96;38.08;101178.69;5060628;28;20055;-77
2022/05/20 07:21:40;;;;;;;5.15;1.42;;;;;;;22.94;38.19;101170.72;5091772;28;20039;-82
2022/05/20 07:24:05;;;;;;;9.85;1.77;;;;;;;23.16;37.89;101168.88;5091371;28;20099;-77
2022/05/20 07:26:32;;;;;;;5.78;1.85;;;;;;;23.23;37.36;101154.97;5091407;28;20046;-76
2022/05/20 07:28:58;;;;;;;12.13;2.53;;;;;;;23.19;37.61;101159.72;5095590;28;20081;-77
2022/05/20 07:31:24;;;;;;;9.70;2.60;;;;;;;23.24;37.40;101153.78;5095774;28;20553;-82
2022/05/20 07:33:53;;;;;;;6.25;2.10;;;;;;;23.53;37.02;101154.72;5095970;28;20024;-77
2022/05/20 07:36:19;;;;;;;6.30;1.70;;;;;;;23.54;37.28;101158.31;5095614;28;20020;-78
2022/05/20 07:38:45;;;;;;;9.48;2.35;;;;;;;23.57;37.38;101151.94;5095746;28;20028;-77
2022/05/20 07:41:12;;;;;;;6.30;1.83;;;;;;;23.53;37.25;101151.94;5095451;28;20025;-77
2022/05/20 07:43:38;;;;;;;18.55;2.83;;;;;;;23.49;37.11;101136.38;5095112;28;20023;-76
2022/05/20 07:46:05;;;;;;;8.15;1.90;;;;;;;23.59;37.05;101154.38;5095418;28;20028;-75
2022/05/20 07:48:31;;;;;;;9.35;1.95;;;;;;;23.42;37.33;101151.06;5077149;28;20028;-76
2022/05/20 07:51:00;;;;;;;6.43;2.15;;;;;;;23.53;37.27;101148.38;5077639;28;20043;-77
2022/05/20 07:53:33;;;;;;;8.93;3.25;;;;;;;23.59;37.11;101141.22;5096193;28;20606;-76
2022/05/20 07:56:15;;;;;;;9.10;1.80;;;;;;;23.77;36.64;101136.53;5096122;28;20020;-76
2022/05/20 07:58:47;;;;;;;12.23;2.33;;;;;;;23.83;37.04;101134.16;5094843;28;20439;-76
2022/05/20 08:01:13;;;;;;;6.93;1.92;;;;;;;23.66;36.67;101137.69;5095789;28;20508;-76
2022/05/20 08:06:24;;;;;;;7.60;2.17;;;;;;;23.82;36.62;101148.50;5096251;28;20028;-75
2022/05/20 08:08:52;;;;;;;8.15;1.85;;;;;;;23.79;36.67;101130.53;5095953;28;20478;-80
2022/05/20 08:11:18;;;;;;;8.68;2.10;;;;;;;23.87;36.30;101120.19;5095239;28;20028;-76
2022/05/20 08:13:44;;;;;;;4.65;1.70;;;;;;;23.71;36.80;101121.34;5077338;28;20032;-82
2022/05/20 08:16:09;;;;;;;6.90;1.95;;;;;;;23.78;36.97;101126.16;5094540;28;20028;-76
2022/05/20 08:18:35;;;;;;;9.75;2.30;;;;;;;23.94;36.60;101117.44;5095505;28;20120;-78
2022/05/20 08:21:00;;;;;;;7.28;2.35;;;;;;;23.96;36.51;101117.84;5095500;28;20047;-82
2022/05/20 08:23:26;;;;;;;9.05;2.53;;;;;;;24.07;36.74;101111.09;5095626;28;20040;-77
2022/05/20 08:25:52;;;;;;;10.15;2.30;;;;;;;24.20;36.05;101114.31;5095480;28;20498;-82
2022/05/20 08:28:19;;;;;;;9.65;2.95;;;;;;;24.31;36.19;101111.50;5094890;28;20388;-78
2022/05/20 08:30:44;;;;;;;9.40;2.47;;;;;;;24.46;36.23;101106.75;5095368;28;20036;-77
2022/05/20 08:33:10;;;;;;;11.40;3.47;;;;;;;24.52;35.74;101102.38;5095408;28;20051;-77
2022/05/20 08:35:36;;;;;;;6.38;1.88;;;;;;;24.33;35.85;101093.22;5095443;28;20028;-77
2022/05/20 08:38:04;;;;;;;10.85;2.65;;;;;;;24.67;35.61;101098.38;5094582;28;20494;-77
2022/05/20 08:40:37;;;;;;;5.20;1.15;;;;;;;24.67;35.50;101086.41;5095687;28;20474;-77
2022/05/20 08:43:04;;;;;;;5.47;1.20;;;;;;;24.88;34.93;101089.97;5094636;28;20050;-77
2022/05/20 08:45:30;;;;;;;5.20;1.92;;;;;;;25.00;34.71;101076.75;5095181;28;20461;-77
2022/05/20 08:47:57;;;;;;;7.93;1.60;;;;;;;25.28;33.66;101087.88;5095183;28;20113;-82
2022/05/20 08:50:46;;;;;;;6.05;2.00;;;;;;;25.27;33.89;101065.91;5095098;28;20470;-77
2022/05/20 08:53:35;;;;;;;6.00;1.80;;;;;;;25.25;33.16;101060.72;5095134;28;20055;-78
2022/05/20 08:56:05;;;;;;;5.95;2.40;;;;;;;25.65;32.92;101056.53;5094470;28;20131;-77
2022/05/20 08:58:31;;;;;;;7.15;1.95;;;;;;;25.54;33.28;101060.56;5095152;28;20514;-82
2022/05/20 09:00:57;;;;;;;3.83;1.23;;;;;;;25.52;33.09;101065.78;5094822;28;20467;-77
2022/05/20 09:03:23;;;;;;;5.82;1.63;;;;;;;25.75;32.71;101045.69;5094964;28;20031;-78
2022/05/20 09:05:48;;;;;;;10.65;2.58;;;;;;;25.89;32.97;101056.81;5094745;28;20019;-77
2022/05/20 09:08:17;;;;;;;9.65;1.55;;;;;;;26.05;32.74;101042.28;5094925;28;20024;-77
2022/05/20 09:10:44;;;;;;;5.93;1.27;;;;;;;25.99;32.55;101051.13;5093989;28;20027;-78
2022/05/20 09:13:20;;;;;;;5.35;2.00;;;;;;;26.23;32.12;101057.75;5094569;28;20028;-77
2022/05/20 09:16:03;;;;;;;7.63;1.75;;;;;;;26.53;32.23;101051.53;5094726;28;20039;-78
2022/05/20 09:18:29;;;;;;;11.20;1.88;;;;;;;26.34;32.61;101045.66;5091561;28;20034;-77
2022/05/20 09:20:54;;;;;;;7.00;1.70;;;;;;;26.35;32.41;101041.66;5093335;28;20048;-77
2022/05/20 09:23:22;;;;;;;8.90;1.83;;;;;;;26.53;32.30;101040.31;5094378;28;20024;-77
2022/05/20 09:26:11;;;;;;;7.50;1.50;;;;;;;25.92;32.90;101045.59;5093907;28;20055;-77
2022/05/20 09:28:45;;;;;;;6.27;1.80;;;;;;;26.11;32.75;101037.84;5094319;28;20035;-77
2022/05/20 09:31:31;;;;;;;5.28;1.30;;;;;;;26.11;32.80;101035.84;5094010;28;20031;-77
2022/05/20 09:34:16;;;;;;;4.05;1.27;;;;;;;26.28;32.01;101023.69;5094233;28;20020;-76
2022/05/20 09:36:57;;;;;;;8.02;2.92;;;;;;;26.57;32.58;101031.06;5093595;28;20028;-77
2022/05/20 09:39:30;;;;;;;9.50;2.10;;;;;;;26.60;32.34;101017.03;5094130;28;20016;-77
2022/05/20 09:41:58;;;;;;;5.18;1.90;;;;;;;26.62;32.19;101011.00;5093404;28;20431;-77
2022/05/20 09:44:31;;;;;;;6.55;1.25;;;;;;;26.74;32.21;101022.47;5093934;28;20059;-77
2022/05/20 09:47:34;;;;;;;9.93;2.17;;;;;;;27.06;32.15;101024.94;5092253;28;20024;-80
2022/05/20 09:50:31;;;;;;;3.72;1.13;;;;;;;27.16;31.78;101023.22;5090606;28;20032;-77
2022/05/20 09:53:11;;;;;;;4.57;1.25;;;;;;;27.09;31.67;101017.69;5093758;28;20085;-77
2022/05/20 09:55:45;;;;;;;12.60;1.85;;;;;;;26.99;31.58;101016.59;5093081;28;20023;-77
2022/05/20 09:58:29;;;;;;;14.27;2.40;;;;;;;27.12;31.11;101013.25;5093626;28;20016;-81
2022/05/20 10:01:03;;;;;;;7.10;1.45;;;;;;;26.75;31.62;101012.03;5093813;28;20024;-77
2022/05/20 10:03:43;;;;;;;8.15;1.60;;;;;;;27.11;31.09;101009.66;5093813;28;20030;-76
2022/05/20 10:06:18;;;;;;;7.47;1.90;;;;;;;27.40;31.21;101006.47;5093588;28;20026;-76
2022/05/20 10:09:10;;;;;;;4.22;1.27;;;;;;;27.02;31.72;101000.91;5093648;28;20020;-77
2022/05/20 10:11:54;;;;;;;7.82;1.75;;;;;;;26.99;31.72;101001.78;5065434;28;20833;-76
2022/05/20 10:14:25;;;;;;;7.95;2.50;;;;;;;27.20;31.80;100989.50;5073018;28;20388;-76
2022/05/20 10:17:08;;;;;;;4.80;1.80;;;;;;;26.94;32.18;100988.22;5082701;28;20024;-80
2022/05/20 10:19:58;;;;;;;6.90;2.40;;;;;;;26.84;32.47;100987.13;5089727;28;20135;-76
2022/05/20 10:22:45;;;;;;;8.70;2.38;;;;;;;26.91;31.96;100981.44;5093104;28;20028;-77
2022/05/20 10:25:44;;;;;;;5.07;1.42;;;;;;;26.86;31.78;100987.50;5092682;28;20107;-76
2022/05/20 10:34:06;;;;;;;10.77;2.05;;;;;;;26.66;32.19;100975.31;5093143;28;20256;-81
2022/05/20 10:36:59;;;;;;;5.90;1.60;;;;;;;26.91;32.21;100981.44;5092646;28;20491;-80
2022/05/20 10:39:34;;;;;;;6.55;2.15;;;;;;;26.86;32.00;100975.50;5093039;28;20027;-76
2022/05/20 10:42:15;;;;;;;6.32;1.40;;;;;;;26.51;32.93;100983.88;5092324;28;20077;-76
2022/05/20 10:48:34;;;;;;;4.43;1.45;;;;;;;26.51;33.53;100978.28;5075306;28;20042;-79
2022/05/20 10:51:08;;;;;;;;;;;;;;;26.45;34.65;100990.34;5092388;28;20028;-81
2022/05/20 10:54:02;;;;;;;5.43;1.17;;;;;;;26.46;34.83;100977.94;5092232;28;20349;-76
2022/05/20 10:56:46;;;;;;;5.95;1.80;;;;;;;26.66;34.67;100967.69;5091376;28;20111;-76
2022/05/20 10:59:29;;;;;;;9.13;1.73;;;;;;;26.92;34.82;100960.59;5089811;28;20028;-80
2022/05/20 11:02:24;;;;;;;11.60;2.20;;;;;;;27.23;34.89;100958.59;5089918;28;20028;-75
2022/05/20 11:05:16;;;;;;;11.30;2.65;;;;;;;27.33;34.76;100951.25;5089536;28;20016;-76
2022/05/20 11:08:33;;;;;;;10.40;1.90;;;;;;;27.32;33.82;100952.47;5091192;28;20039;-81
2022/05/20 11:11:19;;;;;;;4.95;1.67;;;;;;;27.20;33.45;100950.22;5054646;28;20046;-79
2022/05/20 11:13:50;;;;;;;4.35;1.90;;;;;;;26.94;34.12;100946.94;5072908;28;20382;-76
2022/05/20 11:16:23;;;;;;;7.00;1.95;;;;;;;26.88;34.39;100948.63;5089847;28;20024;-78
2022/05/20 11:18:59;;;;;;;8.55;2.13;;;;;;;26.82;35.33;100950.28;5090463;28;20027;-75
2022/05/20 11:22:06;;;;;;;7.78;1.83;;;;;;;26.88;35.11;100937.41;5091195;28;20052;-75
2022/05/20 11:24:44;;;;;;;13.55;2.47;;;;;;;26.58;35.30;100945.78;5068133;28;20036;-77
2022/05/20 11:27:24;;;;;;;7.18;2.17;;;;;;;26.65;35.42;100942.91;5077222;28;20035;-77
2022/05/20 11:30:22;;;;;;;;;;;;;;;26.38;35.56;100948.38;5076393;28;20077;-76
2022/05/20 11:33:19;;;;;;;4.35;1.92;;;;;;;26.41;35.93;100939.97;5003668;28;19919;-76
2022/05/20 11:35:52;;;;;;;6.90;1.92;;;;;;;26.14;36.67;100923.00;5075573;28;20031;-75
2022/05/20 11:38:53;;;;;;;6.82;1.83;;;;;;;26.32;36.47;100928.44;5075879;28;20541;-76
2022/05/20 11:41:22;;;;;;;6.53;2.30;;;;;;;26.25;37.15;100934.09;5042818;28;20044;-76
2022/05/20 11:44:04;;;;;;;9.43;2.22;;;;;;;26.40;37.24;100937.59;5058211;28;20024;-78
2022/05/20 11:46:50;;;;;;;4.45;1.42;;;;;;;26.58;36.80;100928.97;5087751;28;20036;-78
2022/05/20 11:49:48;;;;;;;4.47;1.73;;;;;;;26.37;37.21;100941.16;5038824;28;20039;-77
2022/05/20 11:52:13;;;;;;;8.40;1.83;;;;;;;26.39;37.42;100942.41;5030543;28;20039;-80
2022/05/20 11:54:39;;;;;;;7.95;2.25;;;;;;;26.29;37.36;100927.25;5091026;28;20016;-81
2022/05/20 11:57:10;;;;;;;7.40;1.77;;;;;;;26.00;38.11;100939.97;5073576;28;20024;-77
2022/05/20 11:59:41;;;;;;;5.63;1.65;;;;;;;26.08;37.98;100930.28;5091814;28;20166;-76
2022/05/20 12:02:10;;;;;;;2.92;1.30;;;;;;;25.88;38.09;100935.66;5092023;28;20024;-76
2022/05/20 12:04:39;;;;;;;5.63;1.63;;;;;;;26.32;37.64;100928.44;5092047;28;20028;-77
2022/05/20 12:07:26;;;;;;;8.57;1.63;;;;;;;26.54;37.38;100923.41;5073830;28;20380;-77
2022/05/20 12:09:58;;;;;;;5.20;1.45;;;;;;;26.43;37.83;100917.91;5090879;28;20051;-77
2022/05/20 12:13:14;;;;;;;6.40;1.65;;;;;;;26.06;38.14;100915.09;5092562;28;20503;-82
2022/05/20 12:16:11;;;;;;;8.10;1.75;;;;;;;26.43;37.67;100917.91;5091434;28;20498;-77
2022/05/20 12:24:43;;;;;;;7.68;1.58;;;;;;;26.07;38.03;100923.09;5094955;28;20035;-78
2022/05/20 12:27:12;;;;;;;6.78;1.95;;;;;;;25.77;38.77;100917.34;5095459;28;20032;-76
2022/05/20 12:29:37;;;;;;;5.82;1.85;;;;;;;25.96;38.53;100931.56;5095440;28;20085;-76